createdAt,value
2023-11-30T00:01:28.056Z,20.20
2023-11-30T00:03:54.997Z,19.00
2023-11-30T00:06:21.821Z,20.27
2023-11-30T00:08:48.595Z,20.80
2023-11-30T00:11:15.337Z,21.52
2023-11-30T00:13:42.061Z,20.88
2023-11-30T00:16:09.045Z,22.27
2023-11-30T00:18:35.876Z,20.83
2023-11-30T00:21:03.119Z,20.50
2023-11-30T00:23:30.293Z,20.60
2023-11-30T00:25:57.101Z,19.53
2023-11-30T00:28:24.082Z,22.08
2023-11-30T00:30:50.977Z,14.60
2023-11-30T00:33:17.832Z,14.38
2023-11-30T00:35:44.556Z,19.40
2023-11-30T00:38:11.370Z,19.92
2023-11-30T00:40:40.923Z,20.13
2023-11-30T00:43:07.945Z,19.75
2023-11-30T00:45:34.897Z,21.13
2023-11-30T00:48:01.761Z,21.57
2023-11-30T00:50:28.827Z,21.92
2023-11-30T00:52:55.701Z,21.80
2023-11-30T00:55:22.475Z,21.05
2023-11-30T01:01:40.481Z,22.88
2023-11-30T01:04:07.534Z,22.77
2023-11-30T01:06:34.373Z,22.40
2023-11-30T01:09:01.182Z,22.10
2023-11-30T01:11:28.027Z,29.40
2023-11-30T01:13:54.774Z,21.45
2023-11-30T01:16:21.534Z,21.95
2023-11-30T01:18:48.387Z,20.10
2023-11-30T01:21:15.235Z,21.10
2023-11-30T01:23:41.997Z,22.15
2023-11-30T01:26:08.754Z,21.63
2023-11-30T01:28:35.770Z,21.08
2023-11-30T01:31:02.541Z,17.00
2023-11-30T01:33:29.438Z,21.45
2023-11-30T01:35:56.281Z,20.90
2023-11-30T01:38:23.017Z,20.75
2023-11-30T01:40:49.754Z,20.38
2023-11-30T01:43:18.780Z,21.77
2023-11-30T01:45:45.614Z,21.70
2023-11-30T01:48:12.933Z,22.30
2023-11-30T01:50:40.000Z,22.20
2023-11-30T01:53:07.474Z,21.87
2023-11-30T01:55:34.338Z,23.95
2023-11-30T01:58:01.664Z,22.15
2023-11-30T02:00:31.592Z,22.42
2023-11-30T02:03:02.646Z,22.80
2023-11-30T02:05:29.433Z,22.50
2023-11-30T02:07:56.192Z,22.17
2023-11-30T02:10:24.490Z,21.50
2023-11-30T02:12:51.295Z,21.88
2023-11-30T02:15:18.153Z,22.77
2023-11-30T02:17:46.400Z,23.00
2023-11-30T02:20:13.199Z,22.75
2023-11-30T02:22:40.063Z,22.30
2023-11-30T02:25:07.105Z,22.20
2023-11-30T02:27:34.009Z,24.57
2023-11-30T02:30:00.839Z,23.10
2023-11-30T02:32:27.710Z,24.20
2023-11-30T02:34:54.418Z,23.75
2023-11-30T02:37:21.206Z,23.13
2023-11-30T02:39:47.976Z,23.23
2023-11-30T02:42:15.113Z,24.00
2023-11-30T02:44:42.074Z,22.67
2023-11-30T02:47:08.828Z,23.70
2023-11-30T02:49:35.599Z,22.45
2023-11-30T02:52:02.579Z,22.95
2023-11-30T02:54:29.490Z,21.83
2023-11-30T02:56:56.289Z,16.35
2023-11-30T02:59:24.324Z,23.20
2023-11-30T03:01:51.329Z,23.77
2023-11-30T03:04:18.310Z,24.87
2023-11-30T03:06:50.857Z,23.07
2023-11-30T03:09:17.873Z,24.65
2023-11-30T03:11:44.731Z,23.10
2023-11-30T03:14:11.468Z,23.55
2023-11-30T03:16:38.220Z,24.85
2023-11-30T03:19:14.458Z,24.00
2023-11-30T03:21:43.942Z,24.17
2023-11-30T03:24:10.919Z,26.02
2023-11-30T03:26:37.947Z,24.67
2023-11-30T03:29:04.721Z,23.53
2023-11-30T03:31:31.660Z,23.70
2023-11-30T03:33:58.499Z,24.00
2023-11-30T03:36:25.651Z,24.52
2023-11-30T03:38:55.354Z,25.00
2023-11-30T03:41:22.932Z,23.38
2023-11-30T03:43:50.193Z,23.40
2023-11-30T03:46:17.006Z,23.95
2023-11-30T03:48:43.931Z,23.42
2023-11-30T03:51:12.148Z,23.38
2023-11-30T03:53:39.021Z,23.85
2023-11-30T03:56:06.179Z,23.45
2023-11-30T03:58:33.093Z,23.50
2023-11-30T04:00:59.835Z,23.63
2023-11-30T04:03:26.703Z,24.63
2023-11-30T04:05:53.680Z,23.40
2023-11-30T04:08:20.503Z,23.38
2023-11-30T04:10:47.360Z,21.90
2023-11-30T04:13:14.140Z,22.52
2023-11-30T04:15:40.869Z,22.90
2023-11-30T04:18:07.782Z,22.40
2023-11-30T04:20:34.728Z,22.98
2023-11-30T04:23:01.803Z,22.30
2023-11-30T04:25:28.822Z,22.93
2023-11-30T04:27:55.515Z,21.63
2023-11-30T04:30:22.314Z,21.50
2023-11-30T04:32:49.067Z,22.98
2023-11-30T04:35:15.964Z,22.90
2023-11-30T04:37:42.755Z,16.20
2023-11-30T04:40:09.878Z,22.17
2023-11-30T04:42:36.616Z,21.40
2023-11-30T04:45:04.122Z,23.27
2023-11-30T04:47:31.061Z,21.55
2023-11-30T04:49:57.771Z,20.95
2023-11-30T04:52:25.199Z,22.05
2023-11-30T04:54:52.238Z,20.70
2023-11-30T04:57:19.087Z,21.03
2023-11-30T04:59:46.652Z,22.10
2023-11-30T05:02:13.615Z,22.10
2023-11-30T05:04:40.493Z,22.03
2023-11-30T05:07:07.350Z,21.38
2023-11-30T05:09:34.048Z,21.58
2023-11-30T05:12:01.093Z,21.80
2023-11-30T05:14:27.936Z,23.20
2023-11-30T05:16:54.797Z,22.20
2023-11-30T05:19:21.556Z,22.65
2023-11-30T05:21:48.318Z,21.27
2023-11-30T05:24:15.188Z,22.20
2023-11-30T05:26:43.358Z,20.35
2023-11-30T05:29:10.053Z,17.95
2023-11-30T05:31:36.797Z,22.35
2023-11-30T05:34:03.848Z,23.48
2023-11-30T05:36:30.992Z,22.57
2023-11-30T05:38:57.742Z,21.40
2023-11-30T05:41:24.463Z,24.27
2023-11-30T05:43:52.072Z,24.92
2023-11-30T05:46:21.805Z,23.73
2023-11-30T05:48:48.637Z,22.60
2023-11-30T05:51:15.482Z,22.45
2023-11-30T05:53:42.423Z,21.98
2023-11-30T05:56:09.532Z,22.95
2023-11-30T05:58:37.436Z,23.37
2023-11-30T06:03:31.180Z,22.08
2023-11-30T06:05:58.052Z,23.07
2023-11-30T06:08:26.078Z,23.80
2023-11-30T06:10:53.035Z,25.08
2023-11-30T06:13:19.971Z,26.23
2023-11-30T06:15:46.918Z,21.90
2023-11-30T06:18:13.792Z,22.93
2023-11-30T06:20:40.548Z,52.85
2023-11-30T06:23:07.416Z,23.15
2023-11-30T06:25:34.215Z,22.15
2023-11-30T06:28:01.120Z,22.67
2023-11-30T06:30:28.230Z,21.15
2023-11-30T06:32:55.058Z,20.50
2023-11-30T06:35:22.201Z,20.90
2023-11-30T06:37:49.049Z,21.10
2023-11-30T06:40:15.949Z,22.13
2023-11-30T06:42:42.789Z,21.23
2023-11-30T06:45:10.013Z,20.33
2023-11-30T06:47:36.986Z,21.35
2023-11-30T06:50:04.824Z,20.23
2023-11-30T06:52:31.651Z,20.90
2023-11-30T06:54:58.537Z,20.90
2023-11-30T06:57:28.132Z,21.45
2023-11-30T06:59:54.929Z,20.67
2023-11-30T07:02:24.520Z,20.27
2023-11-30T07:04:51.410Z,20.88
2023-11-30T07:07:27.932Z,21.10
2023-11-30T07:10:01.223Z,20.98
2023-11-30T07:12:28.151Z,20.75
2023-11-30T07:14:55.273Z,19.58
2023-11-30T07:17:25.322Z,20.13
2023-11-30T07:19:53.874Z,20.85
2023-11-30T07:22:22.067Z,20.50
2023-11-30T07:24:53.006Z,19.38
2023-11-30T07:27:20.526Z,20.67
2023-11-30T07:33:40.557Z,21.35
2023-11-30T07:36:11.122Z,20.88
2023-11-30T07:38:38.824Z,19.33
2023-11-30T07:41:09.344Z,16.07
2023-11-30T07:43:39.177Z,20.55
2023-11-30T07:46:07.268Z,20.48
2023-11-30T07:48:34.202Z,18.73
2023-11-30T07:51:01.206Z,20.48
2023-11-30T07:53:27.998Z,20.87
2023-11-30T07:55:58.462Z,20.33
2023-11-30T07:58:25.480Z,20.10
2023-11-30T08:00:52.878Z,20.38
2023-11-30T08:03:19.990Z,22.58
2023-11-30T08:05:47.097Z,19.53
2023-11-30T08:08:13.871Z,20.73
2023-11-30T08:10:41.253Z,20.55
2023-11-30T08:13:08.385Z,20.98
2023-11-30T08:15:35.324Z,20.67
2023-11-30T08:18:02.385Z,21.37
2023-11-30T08:20:29.317Z,20.30
2023-11-30T08:22:56.486Z,18.95
2023-11-30T08:25:23.347Z,14.97
2023-11-30T08:27:54.568Z,17.13
2023-11-30T08:30:22.193Z,18.45
2023-11-30T08:32:49.543Z,16.20
2023-11-30T08:35:16.339Z,16.83
2023-11-30T08:37:43.405Z,17.92
2023-11-30T08:40:11.949Z,18.10
2023-11-30T08:42:38.925Z,18.05
2023-11-30T08:45:07.173Z,17.17
2023-11-30T08:47:34.058Z,16.27
2023-11-30T08:50:00.744Z,16.90
2023-11-30T08:52:27.493Z,15.73
2023-11-30T08:54:54.384Z,16.80
2023-11-30T08:57:21.455Z,17.13
2023-11-30T08:59:50.623Z,15.57
2023-11-30T09:02:17.618Z,16.35
2023-11-30T09:04:44.628Z,16.10
2023-11-30T09:07:12.107Z,15.47
2023-11-30T09:09:40.995Z,15.32
2023-11-30T09:12:08.845Z,15.65
2023-11-30T09:14:35.679Z,15.37
2023-11-30T09:17:05.044Z,16.70
2023-11-30T09:19:32.080Z,15.10
2023-11-30T09:21:58.861Z,15.83
2023-11-30T09:24:25.726Z,14.50
2023-11-30T09:26:54.482Z,14.90
2023-11-30T09:29:21.557Z,14.98
2023-11-30T09:31:48.618Z,15.95
2023-11-30T09:34:15.519Z,15.03
2023-11-30T09:36:42.834Z,14.75
2023-11-30T09:39:09.837Z,14.10
2023-11-30T09:41:39.990Z,9.77
2023-11-30T09:44:07.814Z,12.45
2023-11-30T09:46:34.881Z,13.95
2023-11-30T09:49:01.953Z,11.00
2023-11-30T09:51:30.287Z,14.57
2023-11-30T09:54:00.305Z,13.35
2023-11-30T09:56:28.176Z,13.20
2023-11-30T10:01:23.722Z,12.43
2023-11-30T10:03:50.942Z,12.00
2023-11-30T10:06:18.098Z,12.10
2023-11-30T10:08:45.316Z,11.70
2023-11-30T10:11:13.414Z,11.77
2023-11-30T10:13:40.360Z,11.32
2023-11-30T10:16:07.960Z,12.27
2023-11-30T10:18:35.766Z,11.55
2023-11-30T10:21:03.412Z,10.75
2023-11-30T10:23:31.414Z,11.20
2023-11-30T10:28:25.393Z,15.47
2023-11-30T10:30:56.745Z,13.63
2023-11-30T10:33:25.492Z,11.30
2023-11-30T10:35:53.719Z,11.32
2023-11-30T10:38:28.407Z,10.57
2023-11-30T10:41:28.586Z,10.85
2023-11-30T10:43:59.837Z,10.60
2023-11-30T10:46:28.398Z,12.15
2023-11-30T10:48:56.630Z,10.57
2023-11-30T10:51:25.035Z,10.38
2023-11-30T10:54:28.566Z,10.48
2023-11-30T10:56:56.147Z,11.55
2023-11-30T10:59:23.519Z,10.60
2023-11-30T11:01:52.932Z,9.93
2023-11-30T11:04:21.918Z,12.23
2023-11-30T11:06:49.559Z,11.50
2023-11-30T11:09:18.938Z,8.73
2023-11-30T11:11:45.753Z,15.88
2023-11-30T11:14:31.889Z,9.77
2023-11-30T11:17:07.256Z,9.55
2023-11-30T11:19:34.268Z,10.00
2023-11-30T11:22:01.101Z,10.00
2023-11-30T11:24:28.617Z,10.27
2023-11-30T11:26:59.725Z,10.32
2023-11-30T11:29:31.114Z,10.35
2023-11-30T11:32:05.920Z,8.65
2023-11-30T11:34:33.658Z,8.40
2023-11-30T11:37:00.497Z,8.63
2023-11-30T11:39:27.334Z,8.50
2023-11-30T11:41:54.123Z,9.65
2023-11-30T11:44:24.080Z,9.57
2023-11-30T11:46:51.700Z,8.75
2023-11-30T11:49:18.656Z,9.45
2023-11-30T11:51:46.853Z,9.80
2023-11-30T11:54:22.121Z,9.80
2023-11-30T11:56:53.797Z,8.65
2023-11-30T11:59:30.560Z,10.38
2023-11-30T12:01:59.287Z,8.75
2023-11-30T12:04:31.154Z,7.80
2023-11-30T12:07:00.689Z,8.07
2023-11-30T12:09:27.764Z,8.70
2023-11-30T12:11:57.647Z,7.80
2023-11-30T12:14:24.434Z,8.10
2023-11-30T12:16:51.401Z,8.50
2023-11-30T12:19:21.109Z,8.67
2023-11-30T12:21:48.550Z,8.65
2023-11-30T12:24:16.099Z,8.63
2023-11-30T12:26:43.224Z,11.15
2023-11-30T12:29:11.556Z,9.97
2023-11-30T12:31:38.511Z,9.27
2023-11-30T12:34:05.744Z,7.47
2023-11-30T12:36:32.637Z,8.85
2023-11-30T12:38:59.577Z,8.75
2023-11-30T12:41:26.377Z,7.40
2023-11-30T12:43:53.203Z,8.23
2023-11-30T12:46:20.156Z,7.55
2023-11-30T12:48:47.542Z,8.00
2023-11-30T12:51:14.465Z,7.68
2023-11-30T12:53:41.225Z,6.28
2023-11-30T12:56:08.620Z,6.97
2023-11-30T12:58:37.472Z,6.82
2023-11-30T13:01:04.613Z,7.32
2023-11-30T13:03:31.466Z,7.70
2023-11-30T13:05:58.437Z,7.18
2023-11-30T13:08:25.429Z,7.20
2023-11-30T13:10:52.602Z,7.30
2023-11-30T13:13:25.937Z,12.10
2023-11-30T13:16:00.120Z,10.63
2023-11-30T13:18:27.420Z,9.32
2023-11-30T13:20:54.625Z,10.38
2023-11-30T13:23:21.464Z,8.70
2023-11-30T13:25:48.312Z,7.90
2023-11-30T13:28:15.039Z,8.70
2023-11-30T13:30:42.040Z,9.48
2023-11-30T13:33:09.160Z,8.53
2023-11-30T13:35:36.000Z,9.40
2023-11-30T13:38:03.097Z,9.73
2023-11-30T13:40:31.982Z,10.37
2023-11-30T13:42:59.356Z,9.93
2023-11-30T13:45:26.752Z,11.40
2023-11-30T13:47:53.732Z,11.15
2023-11-30T13:50:30.499Z,10.77
2023-11-30T13:53:03.759Z,10.50
2023-11-30T13:55:31.318Z,9.88
2023-11-30T13:57:58.204Z,9.02
2023-11-30T14:00:25.540Z,10.17
2023-11-30T14:02:53.367Z,10.77
2023-11-30T14:05:20.322Z,11.00
2023-11-30T14:07:48.035Z,10.60
2023-11-30T14:10:15.622Z,10.68
2023-11-30T14:12:43.942Z,10.18
2023-11-30T14:15:12.640Z,9.57
2023-11-30T14:17:40.309Z,10.38
2023-11-30T14:20:08.788Z,10.70
2023-11-30T14:22:35.982Z,12.57
2023-11-30T14:25:05.041Z,12.15
2023-11-30T14:27:31.925Z,10.30
2023-11-30T14:29:58.961Z,11.27
2023-11-30T14:32:25.839Z,11.13
2023-11-30T14:34:52.642Z,10.50
2023-11-30T14:37:20.696Z,10.05
2023-11-30T14:39:48.104Z,10.90
2023-11-30T14:42:15.011Z,10.75
2023-11-30T14:44:42.320Z,12.25
2023-11-30T14:47:11.164Z,12.93
2023-11-30T14:49:39.205Z,12.82
2023-11-30T14:52:09.580Z,12.93
2023-11-30T14:54:39.021Z,11.00
2023-11-30T14:57:10.391Z,11.10
2023-11-30T14:59:38.304Z,11.25
2023-11-30T15:02:08.876Z,11.35
2023-11-30T15:04:36.954Z,11.25
2023-11-30T15:07:04.719Z,11.25
2023-11-30T15:09:31.528Z,11.63
2023-11-30T15:11:58.320Z,11.02
2023-11-30T15:14:25.167Z,11.82
2023-11-30T15:16:51.982Z,11.95
2023-11-30T15:19:19.364Z,14.43
2023-11-30T15:21:46.288Z,12.30
2023-11-30T15:24:13.107Z,12.43
2023-11-30T15:26:39.955Z,13.57
2023-11-30T15:29:06.804Z,11.50
2023-11-30T15:31:33.623Z,12.55
2023-11-30T15:34:00.874Z,12.15
2023-11-30T15:36:28.034Z,12.95
2023-11-30T15:38:55.010Z,12.00
2023-11-30T15:41:21.761Z,13.67
2023-11-30T15:43:48.563Z,12.70
2023-11-30T15:46:17.660Z,14.40
2023-11-30T15:48:44.685Z,14.90
2023-11-30T15:51:12.727Z,14.87
2023-11-30T15:53:40.903Z,15.32
2023-11-30T15:56:09.186Z,13.05
2023-11-30T15:58:38.390Z,14.27
2023-11-30T16:01:05.732Z,14.45
2023-11-30T16:03:32.625Z,14.32
2023-11-30T16:06:01.002Z,13.65
2023-11-30T16:08:31.300Z,15.05
2023-11-30T16:10:58.044Z,16.02
2023-11-30T16:13:25.560Z,15.93
2023-11-30T16:15:52.925Z,20.30
2023-11-30T16:18:19.793Z,18.70
2023-11-30T16:20:46.845Z,19.03
2023-11-30T16:23:13.678Z,14.45
2023-11-30T16:25:40.580Z,15.30
2023-11-30T16:28:07.745Z,16.30
2023-11-30T16:30:34.661Z,17.37
2023-11-30T16:33:01.656Z,15.73
2023-11-30T16:35:28.602Z,14.80
2023-11-30T16:37:55.438Z,15.95
2023-11-30T16:40:22.303Z,14.73
2023-11-30T16:42:49.238Z,16.80
2023-11-30T16:45:16.181Z,16.07
2023-11-30T16:47:42.941Z,16.58
2023-11-30T16:50:14.906Z,16.98
2023-11-30T16:52:43.444Z,17.23
2023-11-30T16:55:11.234Z,18.60
2023-11-30T16:57:37.960Z,16.23
2023-11-30T17:00:05.420Z,17.55
2023-11-30T17:02:32.634Z,16.90
2023-11-30T17:04:59.617Z,17.75
2023-11-30T17:07:26.472Z,16.17
2023-11-30T17:09:53.357Z,16.85
2023-11-30T17:12:20.264Z,18.13
2023-11-30T17:14:47.496Z,19.33
2023-11-30T17:17:14.246Z,18.88
2023-11-30T17:19:41.072Z,19.27
2023-11-30T17:22:08.071Z,21.88
2023-11-30T17:24:34.879Z,22.33
2023-11-30T17:27:01.749Z,20.55
2023-11-30T17:29:28.579Z,19.58
2023-11-30T17:31:55.352Z,22.95
2023-11-30T17:34:22.394Z,19.00
2023-11-30T17:36:49.372Z,21.03
2023-11-30T17:39:17.970Z,20.20
2023-11-30T17:41:45.824Z,20.20
2023-11-30T17:44:12.724Z,20.40
2023-11-30T17:46:42.985Z,19.57
2023-11-30T17:49:10.064Z,19.13
2023-11-30T17:51:36.932Z,15.50
2023-11-30T17:54:03.825Z,21.17
2023-11-30T17:56:30.585Z,15.30
2023-11-30T17:58:57.536Z,19.60
2023-11-30T18:01:24.264Z,20.37
2023-11-30T18:03:51.102Z,32.00
2023-11-30T18:06:18.031Z,21.45
2023-11-30T18:08:45.080Z,20.75
2023-11-30T18:11:11.982Z,22.47
2023-11-30T18:13:39.195Z,26.30
2023-11-30T18:16:06.800Z,23.63
2023-11-30T18:18:33.826Z,23.35
2023-11-30T18:21:00.721Z,21.97
2023-11-30T18:23:27.573Z,20.30
2023-11-30T18:25:54.365Z,22.20
2023-11-30T18:28:21.221Z,19.88
2023-11-30T18:30:48.052Z,20.08
2023-11-30T18:33:15.488Z,20.38
2023-11-30T18:35:42.420Z,21.60
2023-11-30T18:38:09.270Z,21.63
2023-11-30T18:40:45.309Z,19.92
2023-11-30T18:43:17.118Z,18.85
2023-11-30T18:45:44.240Z,20.38
2023-11-30T18:48:11.190Z,21.80
2023-11-30T18:50:38.023Z,21.27
2023-11-30T18:53:04.850Z,21.17
2023-11-30T18:58:45.467Z,24.42
2023-11-30T19:01:16.617Z,32.03
2023-11-30T19:03:43.596Z,25.35
2023-11-30T19:06:16.649Z,32.42
2023-11-30T19:08:44.296Z,24.55
2023-11-30T19:11:14.308Z,25.67
2023-11-30T19:13:41.514Z,23.63
2023-11-30T19:16:11.600Z,23.27
2023-11-30T19:18:38.531Z,21.77
2023-11-30T19:21:05.777Z,22.03
2023-11-30T19:23:32.937Z,21.87
2023-11-30T19:26:00.863Z,22.00
2023-11-30T19:30:54.744Z,22.63
2023-11-30T19:33:21.682Z,22.90
2023-11-30T19:35:51.344Z,24.58
2023-11-30T19:38:19.441Z,25.73
2023-11-30T19:40:49.643Z,23.95
2023-11-30T19:43:17.351Z,22.33
2023-11-30T19:45:44.539Z,23.35
2023-11-30T19:48:11.401Z,25.98
2023-11-30T19:50:40.652Z,21.98
2023-11-30T19:53:07.419Z,22.08
2023-11-30T19:55:34.334Z,22.67
2023-11-30T19:58:01.220Z,23.37
2023-11-30T20:00:28.035Z,21.90
2023-11-30T20:02:54.866Z,24.02
2023-11-30T20:05:23.240Z,22.92
2023-11-30T20:07:49.990Z,27.13
2023-11-30T20:10:17.242Z,24.50
2023-11-30T20:12:45.734Z,18.02
2023-11-30T20:15:12.521Z,23.60
2023-11-30T20:17:40.808Z,22.70
2023-11-30T20:20:08.273Z,24.38
2023-11-30T20:22:37.637Z,25.05
2023-11-30T20:25:08.313Z,25.13
2023-11-30T20:27:35.287Z,26.05
2023-11-30T20:30:02.214Z,26.30
2023-11-30T20:32:29.174Z,18.92
2023-11-30T20:34:56.401Z,26.20
2023-11-30T20:37:23.360Z,20.00
2023-11-30T20:39:50.231Z,27.90
2023-11-30T20:42:17.423Z,20.73
2023-11-30T20:44:44.191Z,28.83
2023-11-30T20:47:11.084Z,30.65
2023-11-30T20:49:38.058Z,33.95
2023-11-30T20:52:05.298Z,34.73
2023-11-30T20:54:36.884Z,34.58
2023-11-30T20:57:04.031Z,38.17
2023-11-30T20:59:31.836Z,39.27
2023-11-30T21:02:03.099Z,38.85
2023-11-30T21:04:32.837Z,38.67
2023-11-30T21:07:02.546Z,41.88
2023-11-30T21:09:29.933Z,43.15
2023-11-30T21:11:57.198Z,44.03
2023-11-30T21:14:24.355Z,45.50
2023-11-30T21:16:51.728Z,43.67
2023-11-30T21:19:20.745Z,44.03
2023-11-30T21:21:48.442Z,43.40
2023-11-30T21:26:42.365Z,41.57
2023-11-30T21:29:09.149Z,43.70
2023-11-30T21:31:36.060Z,46.33
2023-11-30T21:34:02.934Z,44.05
2023-11-30T21:36:29.739Z,34.23
2023-11-30T21:38:56.504Z,43.38
2023-11-30T21:41:23.678Z,43.47
2023-11-30T21:43:50.520Z,45.92
2023-11-30T21:46:18.033Z,43.05
2023-11-30T21:48:45.075Z,46.13
2023-11-30T21:51:12.261Z,33.10
2023-11-30T21:53:39.095Z,41.72
2023-11-30T21:56:06.919Z,41.85
2023-11-30T21:58:34.385Z,39.90
2023-11-30T22:01:01.273Z,40.65
2023-11-30T22:03:28.280Z,42.53
2023-11-30T22:05:55.078Z,29.70
2023-11-30T22:08:21.824Z,38.10
2023-11-30T22:10:48.780Z,37.67
2023-11-30T22:13:15.636Z,30.03
2023-11-30T22:15:42.444Z,40.58
2023-11-30T22:18:09.251Z,42.20
2023-11-30T22:20:35.948Z,39.97
2023-11-30T22:23:02.787Z,36.50
2023-11-30T22:25:29.767Z,37.08
2023-11-30T22:27:56.585Z,37.33
2023-11-30T22:30:23.327Z,38.20
2023-11-30T22:32:50.235Z,36.13
2023-11-30T22:35:17.112Z,37.15
2023-11-30T22:37:43.872Z,35.90
2023-11-30T22:40:11.080Z,35.08
2023-11-30T22:42:37.867Z,33.35
2023-11-30T22:45:06.354Z,33.17
2023-11-30T22:47:34.658Z,32.70
2023-11-30T22:50:01.414Z,31.70
2023-11-30T22:52:28.412Z,31.38
2023-11-30T22:54:55.446Z,31.63
2023-11-30T22:57:22.374Z,31.33
2023-11-30T22:59:49.443Z,32.53
2023-11-30T23:02:16.356Z,35.97
2023-11-30T23:04:43.498Z,33.33
2023-11-30T23:07:10.557Z,25.88
2023-11-30T23:09:38.205Z,23.37
2023-11-30T23:12:05.518Z,30.55
2023-11-30T23:14:32.369Z,34.33
2023-11-30T23:16:59.169Z,32.80
2023-11-30T23:19:28.801Z,30.63
2023-11-30T23:21:55.522Z,30.90
2023-11-30T23:24:26.093Z,32.90
2023-11-30T23:26:58.141Z,30.85
2023-11-30T23:29:24.926Z,30.00
2023-11-30T23:31:51.752Z,32.65
2023-11-30T23:34:18.568Z,32.90
2023-11-30T23:36:45.346Z,31.95
2023-11-30T23:39:12.155Z,25.75
2023-11-30T23:41:39.040Z,30.85
2023-11-30T23:44:07.110Z,33.70
2023-11-30T23:46:33.984Z,32.95
2023-11-30T23:49:00.776Z,33.65
2023-11-30T23:51:27.767Z,25.08
2023-11-30T23:53:54.660Z,31.43
2023-11-30T23:56:21.472Z,32.75
2023-11-30T23:58:48.232Z,32.30
